Ana Sayfa
METAR-TAF:

METAR-TAF

Havaalanları :

New Castle, Pensilvanya, Amerika Birleşik Devletleri

Enlem: 41-01-31N, Boylam: 080-24-48W, yükseklik: 326 m

Güncel hava durumu gözlemi

Rapor saat 06:56 UTC de 50 dakika önce yapıldı.
Rüzgar doğu/kuzeydoğudan 5 kt
Sıcaklık 21°C
Nem 100%
Basınç 1013 hPa
Görüş mesafesi: 16.1 km
4700 ft yükseklikte parçalı çok bulutlu

METAR: KUCP 220656Z AUTO 07005KT 10SM BKN047 21/21 A2991 RMK AO2 RAB04E23 SLP132 T02110206 PNO $

Saat: 03:46 (07:46 UTC)


TAF: eksik

4.000'den fazla havaalanı için hava durumu gözlemleri ve tahminleri (METAR ve TAF raporları).

Kullanılabilir istasyonlar harita üzerinde sarı ve kırmızı noktalarla gösterilir.

İstasyonun adını görmek için fareyi noktanın üzerinde gezdirin.

Sonrasında hava gözlem ve tahminlerini görmek için tıklayın.

Haritayı değiştirmek için: yaklaştırmak için siyah artı işaretli yeşil düğmeye ve uzaklaştırmak için de eksi işaretli düğmeye hızla tıklayın; bitişik haritalar için yeşil okları kullanın.


METAR-TAF: